Time;durP1;ratioP1;P1;durP2;ratioP2;P2;SDS_P1;SDS_P2;PMS_P1;PMS_P2;Temp;Humidity;BMP_temperature;BMP_pressure;BME280_temperature;BME280_humidity;BME280_pressure;Samples;Min_cycle;Max_cycle;Signal;HPM_P1;HPM_P2
2023/07/31 00:01:03;;;;;;;;;;;;;;;17.68;67.67;99240.47;4976165;28;5017;-77
2023/07/31 00:03:30;;;;;;;;;;;;;;;17.67;67.39;99232.59;4979368;28;4976;-76
2023/07/31 00:05:56;;;;;;;;;;;;;;;17.67;67.66;99235.31;4977174;28;5141;-76
2023/07/31 00:08:23;;;;;;;;;;;;;;;17.67;67.63;99232.59;4959109;28;4525;-76
2023/07/31 00:10:49;;;;;;;;;;;;;;;17.66;67.58;99233.69;4979402;28;4731;-77
2023/07/31 00:13:16;;;;;;;;;;;;;;;17.66;67.32;99241.88;4976559;28;5079;-76
2023/07/31 00:15:43;;;;;;;;;;;;;;;17.65;67.47;99242.97;4981631;28;4954;-76
2023/07/31 00:18:09;;;;;;;;;;;;;;;17.64;67.57;99244.06;4976590;28;5016;-77
2023/07/31 00:20:36;;;;;;;;;;;;;;;17.64;67.44;99244.06;4977306;28;4531;-77
2023/07/31 00:23:03;;;;;;;;;;;;;;;17.63;67.53;99251.44;4957424;28;5023;-77
2023/07/31 00:25:29;;;;;;;;;;;;;;;17.62;67.25;99255.28;4961275;28;4293;-78
2023/07/31 00:27:56;;;;;;;;;;;;;;;17.61;67.56;99250.13;4976733;28;4923;-77
2023/07/31 00:30:22;;;;;;;;;;;;;;;17.62;67.38;99258.00;4977037;28;4899;-77
2023/07/31 00:32:49;;;;;;;;;;;;;;;17.60;67.61;99248.50;4979364;28;4349;-76
2023/07/31 00:35:15;;;;;;;;;;;;;;;17.60;67.41;99257.47;4978707;28;5108;-77
2023/07/31 00:37:42;;;;;;;;;;;;;;;17.59;67.35;99247.69;4977899;28;4944;-75
2023/07/31 00:40:08;;;;;;;;;;;;;;;17.59;67.58;99249.59;4974633;28;5325;-76
2023/07/31 00:42:35;;;;;;;;;;;;;;;17.58;67.35;99246.06;4976271;28;4845;-76
2023/07/31 00:45:01;;;;;;;;;;;;;;;17.57;67.52;99236.28;4975908;28;5141;-77
2023/07/31 00:47:28;;;;;;;;;;;;;;;17.57;67.48;99235.50;4977721;28;4996;-77
2023/07/31 00:49:55;;;;;;;;;;;;;;;17.56;67.38;99240.13;4977329;28;5082;-77
2023/07/31 00:52:21;;;;;;;;;;;;;;;17.56;67.39;99231.97;4970847;28;4931;-77
2023/07/31 00:54:48;;;;;;;;;;;;;;;17.56;67.37;99234.69;4977715;28;4925;-78
2023/07/31 00:57:14;;;;;;;;;;;;;;;17.58;67.32;99229.72;4976943;28;5163;-76
2023/07/31 00:59:41;;;;;;;;;;;;;;;17.56;67.47;99222.97;4980247;28;4783;-77
2023/07/31 01:02:07;;;;;;;;;;;;;;;17.54;67.48;99227.91;4976003;28;4948;-77
2023/07/31 01:04:34;;;;;;;;;;;;;;;17.54;67.49;99220.56;4978405;28;4152;-77
2023/07/31 01:07:00;;;;;;;;;;;;;;;17.54;67.37;99227.91;4974427;28;4946;-77
2023/07/31 01:09:27;;;;;;;;;;;;;;;17.54;67.24;99226.00;4977704;28;5141;-77
2023/07/31 01:11:54;;;;;;;;;;;;;;;17.55;67.36;99222.16;4976283;28;5323;-77
2023/07/31 01:14:20;;;;;;;;;;;;;;;17.56;67.27;99218.34;4972938;28;5028;-78
2023/07/31 01:16:47;;;;;;;;;;;;;;;17.55;67.08;99222.16;4975937;28;5244;-77
2023/07/31 01:19:13;;;;;;;;;;;;;;;17.57;67.18;99232.78;4977223;28;5222;-77
2023/07/31 01:21:40;;;;;;;;;;;;;;;17.58;67.01;99229.72;4977180;28;5043;-76
2023/07/31 01:24:06;;;;;;;;;;;;;;;17.58;66.98;99228.94;4976183;28;4418;-77
2023/07/31 01:26:33;;;;;;;;;;;;;;;17.52;67.17;99220.03;4976750;28;4473;-77
2023/07/31 01:28:59;;;;;;;;;;;;;;;17.55;67.15;99218.63;4967276;28;5039;-77
2023/07/31 01:31:27;;;;;;;;;;;;;;;17.57;66.94;99222.69;4978771;28;4382;-77
2023/07/31 01:33:54;;;;;;;;;;;;;;;17.59;66.96;99220.47;4956007;28;5157;-77
2023/07/31 01:36:20;;;;;;;;;;;;;;;17.65;66.65;99218.47;4975122;28;5057;-75
2023/07/31 01:38:47;;;;;;;;;;;;;;;17.65;66.67;99223.94;4978168;28;4242;-77
2023/07/31 01:41:14;;;;;;;;;;;;;;;17.65;66.64;99227.44;4976758;28;5158;-77
2023/07/31 01:43:40;;;;;;;;;;;;;;;17.59;66.85;99225.09;4956525;28;4997;-77
2023/07/31 01:46:07;;;;;;;;;;;;;;;17.56;66.91;99220.25;4975147;28;4974;-77
2023/07/31 01:48:36;;;;;;;;;;;;;;;17.60;66.65;99230.25;4977996;28;5002;-76
2023/07/31 01:51:03;;;;;;;;;;;;;;;17.68;66.25;99231.50;4977774;28;5041;-77
2023/07/31 01:53:29;;;;;;;;;;;;;;;17.68;66.12;99224.13;4955211;28;4800;-76
2023/07/31 01:55:56;;;;;;;;;;;;;;;17.76;66.10;99224.53;4977846;28;4417;-77
2023/07/31 01:58:22;;;;;;;;;;;;;;;17.71;66.15;99228.97;4974223;28;5124;-77
2023/07/31 02:00:49;;;;;;;;;;;;;;;17.69;66.13;99230.38;4959146;28;4650;-76
2023/07/31 02:03:15;;;;;;;;;;;;;;;17.69;66.29;99224.94;4957898;28;4931;-76
2023/07/31 02:05:42;;;;;;;;;;;;;;;17.76;65.75;99227.25;4974561;28;5014;-77
2023/07/31 02:08:09;;;;;;;;;;;;;;;17.82;65.62;99220.66;4974980;28;4489;-77
2023/07/31 02:10:35;;;;;;;;;;;;;;;17.91;65.25;99218.84;4974317;28;5030;-77
2023/07/31 02:13:03;;;;;;;;;;;;;;;17.98;65.18;99221.19;4977510;28;4823;-77
2023/07/31 02:15:30;;;;;;;;;;;;;;;18.14;64.34;99220.59;4974025;28;5229;-76
2023/07/31 02:17:56;;;;;;;;;;;;;;;18.16;64.36;99221.09;4977109;28;5023;-77
2023/07/31 02:20:23;;;;;;;;;;;;;;;18.13;64.18;99218.97;4955706;28;4807;-77
2023/07/31 02:22:49;;;;;;;;;;;;;;;18.08;64.49;99223.72;4976680;28;4959;-78
2023/07/31 02:25:16;;;;;;;;;;;;;;;18.29;64.09;99224.13;4953855;28;4508;-77
2023/07/31 02:27:43;;;;;;;;;;;;;;;18.05;64.55;99211.50;4974357;28;4938;-76
2023/07/31 02:30:10;;;;;;;;;;;;;;;18.07;64.45;99217.47;4976256;28;5291;-76
2023/07/31 02:32:36;;;;;;;;;;;;;;;17.98;64.70;99216.53;4974261;28;4910;-77
2023/07/31 02:35:03;;;;;;;;;;;;;;;18.22;63.81;99223.72;4975827;28;4305;-77
2023/07/31 02:37:29;;;;;;;;;;;;;;;18.24;63.79;99214.16;4973948;28;4749;-76
2023/07/31 02:39:56;;;;;;;;;;;;;;;17.79;65.08;99229.41;4977297;28;5137;-77
2023/07/31 02:42:23;;;;;;;;;;;;;;;18.16;64.33;99223.00;4954768;28;4954;-76
2023/07/31 02:44:51;;;;;;;;;;;;;;;18.32;63.47;99220.78;4976492;28;5150;-77
2023/07/31 02:47:18;;;;;;;;;;;;;;;18.21;63.47;99217.47;4975933;28;5008;-77
2023/07/31 02:49:45;;;;;;;;;;;;;;;17.96;64.67;99226.13;4975509;28;4941;-77
2023/07/31 02:52:11;;;;;;;;;;;;;;;18.32;63.50;99216.16;4975056;28;4732;-76
2023/07/31 02:54:38;;;;;;;;;;;;;;;18.36;63.14;99222.63;4973360;28;5231;-77
2023/07/31 02:57:04;;;;;;;;;;;;;;;18.32;63.12;99216.16;4977059;28;4917;-76
2023/07/31 02:59:31;;;;;;;;;;;;;;;18.14;64.01;99228.75;4973315;28;4957;-77
2023/07/31 03:01:57;;;;;;;;;;;;;;;18.26;63.27;99220.06;4975261;28;5202;-77
2023/07/31 03:04:24;;;;;;;;;;;;;;;18.32;63.21;99216.16;4974917;28;5074;-77
2023/07/31 03:06:50;;;;;;;;;;;;;;;18.22;63.49;99223.72;4976196;28;4979;-76
2023/07/31 03:09:17;;;;;;;;;;;;;;;18.33;63.17;99215.06;4973700;28;4527;-77
2023/07/31 03:11:43;;;;;;;;;;;;;;;18.34;63.33;99222.09;4974219;28;4579;-77
2023/07/31 03:14:11;;;;;;;;;;;;;;;18.27;63.17;99219.00;4958346;28;4346;-77
2023/07/31 03:16:38;;;;;;;;;;;;;;;18.23;63.17;99215.22;4974002;28;4786;-77
2023/07/31 03:19:04;;;;;;;;;;;;;;;18.24;63.31;99221.53;4956221;28;4179;-76
2023/07/31 03:21:31;;;;;;;;;;;;;;;18.13;63.46;99223.63;4974583;28;4394;-77
2023/07/31 03:23:57;;;;;;;;;;;;;;;18.21;63.37;99222.94;4977540;28;4855;-77
2023/07/31 03:26:24;;;;;;;;;;;;;;;18.35;63.06;99222.91;4955254;28;4650;-77
2023/07/31 03:28:50;;;;;;;;;;;;;;;18.11;63.57;99226.63;4958153;28;4459;-77
2023/07/31 03:31:17;;;;;;;;;;;;;;;18.15;63.60;99224.94;4974615;28;5101;-76
2023/07/31 03:33:43;;;;;;;;;;;;;;;18.19;63.41;99219.69;4957366;28;4799;-77
2023/07/31 03:36:10;;;;;;;;;;;;;;;18.27;63.08;99229.09;4975738;28;4936;-76
2023/07/31 03:38:37;;;;;;;;;;;;;;;18.20;63.04;99229.47;4974332;28;5004;-76
2023/07/31 03:41:03;;;;;;;;;;;;;;;18.16;63.37;99223.00;4956846;28;4495;-77
2023/07/31 03:43:30;;;;;;;;;;;;;;;18.23;63.11;99233.50;4955449;28;5169;-77
2023/07/31 03:45:56;;;;;;;;;;;;;;;18.28;63.03;99228.78;4974162;28;5424;-76
2023/07/31 03:48:23;;;;;;;;;;;;;;;18.15;63.12;99232.31;4954788;28;4945;-76
2023/07/31 03:50:49;;;;;;;;;;;;;;;17.96;63.85;99237.81;4956153;28;4986;-76
2023/07/31 03:53:16;;;;;;;;;;;;;;;18.23;63.06;99237.03;4951440;28;4964;-77
2023/07/31 03:55:42;;;;;;;;;;;;;;;18.31;62.59;99239.06;4974194;28;4940;-76
2023/07/31 03:58:09;;;;;;;;;;;;;;;18.23;62.98;99236.22;4954680;28;4953;-77
2023/07/31 04:00:35;;;;;;;;;;;;;;;18.21;63.10;99239.28;4974628;28;4839;-76
2023/07/31 04:03:02;;;;;;;;;;;;;;;18.17;63.08;99232.78;4973744;28;4804;-77
2023/07/31 04:05:28;;;;;;;;;;;;;;;18.03;63.38;99234.69;4974372;28;4994;-77
2023/07/31 04:07:55;;;;;;;;;;;;;;;18.19;62.83;99233.31;4975853;28;4515;-77
2023/07/31 04:10:22;;;;;;;;;;;;;;;18.14;62.96;99231.47;4955405;28;4525;-77
2023/07/31 04:12:49;;;;;;;;;;;;;;;18.05;63.19;99230.56;4979462;28;5164;-77
2023/07/31 04:15:40;;;;;;;;;;;;;;;18.18;62.74;99237.16;4979048;28;5276;-75
2023/07/31 04:18:32;;;;;;;;;;;;;;;18.14;63.12;99236.94;4977366;28;5004;-75
2023/07/31 04:21:24;;;;;;;;;;;;;;;18.22;62.80;99237.34;4975776;28;5214;-76
2023/07/31 04:24:23;;;;;;;;;;;;;;;17.98;63.41;99238.34;4980798;28;4987;-75
2023/07/31 04:27:15;;;;;;;;;;;;;;;18.13;63.06;99234.53;4980340;28;4360;-77
2023/07/31 04:30:07;;;;;;;;;;;;;;;18.25;62.46;99234.03;4980818;28;4214;-77
2023/07/31 04:32:59;;;;;;;;;;;;;;;18.32;62.38;99232.53;4989545;23;4527;-76
2023/07/31 04:35:52;;;;;;;;;;;;;;;18.20;62.62;99232.19;4976868;28;4988;-76
2023/07/31 04:38:38;;;;;;;;;;;;;;;18.14;62.75;99231.47;4976017;28;5021;-77
2023/07/31 04:41:05;;;;;;;;;;;;;;;18.09;62.80;99231.59;4975654;28;4953;-77
2023/07/31 04:43:32;;;;;;;;;;;;;;;18.27;62.24;99232.63;4976830;28;4992;-76
2023/07/31 04:45:59;;;;;;;;;;;;;;;18.24;62.27;99232.41;4976024;28;4931;-77
2023/07/31 04:48:25;;;;;;;;;;;;;;;18.17;62.90;99233.59;4977497;28;4732;-77
2023/07/31 04:50:52;;;;;;;;;;;;;;;18.20;62.61;99226.75;4976292;28;5231;-76
2023/07/31 04:53:18;;;;;;;;;;;;;;;18.01;63.03;99226.03;4974928;28;5117;-75
2023/07/31 04:55:45;;;;;;;;;;;;;;;18.20;62.45;99215.84;4975930;28;4731;-77
2023/07/31 04:58:11;;;;;;;;;;;;;;;18.16;62.41;99212.91;4975316;28;5141;-76
2023/07/31 05:00:38;;;;;;;;;;;;;;;18.19;62.32;99218.88;4975491;28;4353;-75
2023/07/31 05:03:05;;;;;;;;;;;;;;;18.19;62.27;99221.59;4975932;28;4975;-75
2023/07/31 05:05:31;;;;;;;;;;;;;;;18.11;62.60;99215.72;4974462;28;4518;-76
2023/07/31 05:07:58;;;;;;;;;;;;;;;18.14;62.49;99215.13;4978243;28;4422;-75
2023/07/31 05:10:24;;;;;;;;;;;;;;;18.18;62.63;99212.63;4975176;28;4831;-77
2023/07/31 05:12:51;;;;;;;;;;;;;;;18.21;62.42;99212.03;4975740;28;5105;-76
2023/07/31 05:15:17;;;;;;;;;;;;;;;18.13;62.75;99223.63;4975498;28;5037;-78
2023/07/31 05:17:44;;;;;;;;;;;;;;;18.05;62.64;99216.94;4977011;28;4979;-76
2023/07/31 05:20:10;;;;;;;;;;;;;;;18.21;62.28;99216.69;4976053;28;4778;-77
2023/07/31 05:22:37;;;;;;;;;;;;;;;18.06;62.72;99224.03;4974869;28;5120;-76
2023/07/31 05:25:03;;;;;;;;;;;;;;;18.10;62.27;99222.31;4977317;28;5107;-77
2023/07/31 05:27:31;;;;;;;;;;;;;;;17.95;62.82;99221.78;4974293;28;4963;-76
2023/07/31 05:29:57;;;;;;;;;;;;;;;18.06;62.63;99221.31;4975132;28;5037;-75
2023/07/31 05:32:24;;;;;;;;;;;;;;;18.12;62.31;99222.81;4972923;28;4850;-75
2023/07/31 05:34:50;;;;;;;;;;;;;;;18.06;62.34;99224.03;4957275;28;5156;-78
2023/07/31 05:37:17;;;;;;;;;;;;;;;18.12;62.37;99224.75;4960035;28;4364;-74
2023/07/31 05:39:44;;;;;;;;;;;;;;;18.04;62.61;99228.16;4973879;28;5307;-76
2023/07/31 05:42:10;;;;;;;;;;;;;;;18.09;62.56;99226.16;4975913;28;4940;-76
2023/07/31 05:44:37;;;;;;;;;;;;;;;18.20;62.00;99231.38;4974707;28;4996;-75
2023/07/31 05:47:03;;;;;;;;;;;;;;;18.13;62.56;99231.78;4974981;28;4984;-77
2023/07/31 05:49:30;;;;;;;;;;;;;;;17.93;62.69;99233.78;4975223;28;4937;-76
2023/07/31 05:51:56;;;;;;;;;;;;;;;18.11;62.36;99226.63;4974749;28;5306;-76
2023/07/31 05:54:23;;;;;;;;;;;;;;;18.09;62.15;99226.16;4976604;28;4400;-78
2023/07/31 05:56:49;;;;;;;;;;;;;;;18.04;62.39;99228.97;4975688;28;5054;-78
2023/07/31 05:59:16;;;;;;;;;;;;;;;18.04;62.45;99228.97;4973841;28;5026;-75
2023/07/31 06:01:43;;;;;;;;;;;;;;;17.99;62.36;99220.88;4974613;28;5113;-75
2023/07/31 06:04:09;;;;;;;;;;;;;;;18.09;62.21;99222.63;4975171;28;4806;-76
2023/07/31 06:06:36;;;;;;;;;;;;;;;18.03;62.67;99223.78;4973969;28;5005;-75
2023/07/31 06:09:03;;;;;;;;;;;;;;;18.03;62.32;99215.63;4974707;28;4412;-78
2023/07/31 06:11:29;;;;;;;;;;;;;;;18.04;62.34;99215.34;4973927;28;4995;-78
2023/07/31 06:13:56;;;;;;;;;;;;;;;17.79;63.30;99216.59;4977181;28;5174;-77
2023/07/31 06:16:23;;;;;;;;;;;;;;;17.95;62.49;99216.34;4973819;28;5008;-77
2023/07/31 06:18:49;;;;;;;;;;;;;;;18.06;62.33;99215.84;4976745;28;4705;-77
2023/07/31 06:21:16;;;;;;;;;;;;;;;18.07;62.16;99222.91;4972822;28;5003;-76
2023/07/31 06:23:42;;;;;;;;;;;;;;;18.07;62.08;99217.47;4974468;28;4933;-76
2023/07/31 06:26:09;;;;;;;;;;;;;;;18.00;62.28;99216.22;4973345;28;4213;-76
2023/07/31 06:28:35;;;;;;;;;;;;;;;18.01;62.37;99226.03;4974986;28;4975;-76
2023/07/31 06:31:02;;;;;;;;;;;;;;;17.89;62.45;99232.78;4973832;28;4957;-77
2023/07/31 06:33:29;;;;;;;;;;;;;;;17.84;62.82;99227.41;4973509;28;5212;-76
2023/07/31 06:35:55;;;;;;;;;;;;;;;17.95;62.48;99235.41;4974509;28;4931;-76
2023/07/31 06:38:22;;;;;;;;;;;;;;;17.46;64.28;99232.13;4971820;28;4920;-76
2023/07/31 06:40:49;;;;;;;;;;;;;;;17.58;63.74;99229.72;4975445;28;5163;-76
2023/07/31 06:43:15;;;;;;;;;;;;;;;17.64;63.88;99231.25;4973684;28;4987;-76
2023/07/31 06:45:42;;;;;;;;;;;;;;;17.37;64.41;99231.19;4974926;28;4959;-77
2023/07/31 06:48:09;;;;;;;;;;;;;;;17.31;64.81;99227.72;4972262;28;5057;-75
2023/07/31 06:50:35;;;;;;;;;;;;;;;17.25;64.89;99227.00;4972786;28;5061;-77
2023/07/31 06:53:02;;;;;;;;;;;;;;;17.14;65.37;99227.44;4973273;28;5219;-76
2023/07/31 06:55:29;;;;;;;;;;;;;;;17.19;65.21;99230.09;4975181;28;4339;-76
2023/07/31 06:57:55;;;;;;;;;;;;;;;17.14;65.39;99224.72;4973410;28;4213;-75
2023/07/31 07:00:24;;;;;;;;;;;;;;;17.06;65.60;99223.50;4967893;28;4282;-78
2023/07/31 07:02:51;;;;;;;;;;;;;;;17.01;65.86;99226.28;4975036;28;5563;-75
2023/07/31 07:05:18;;;;;;;;;;;;;;;16.99;65.94;99225.75;4972995;28;4936;-77
2023/07/31 07:07:44;;;;;;;;;;;;;;;16.98;66.01;99224.97;4973480;28;4953;-77
2023/07/31 07:10:11;;;;;;;;;;;;;;;16.99;65.90;99229.28;4971717;28;5012;-76
2023/07/31 07:12:38;;;;;;;;;;;;;;;16.96;65.98;99227.16;4975838;28;4239;-78
2023/07/31 07:15:04;;;;;;;;;;;;;;;17.00;65.90;99227.38;4956203;28;4980;-77
2023/07/31 07:17:32;;;;;;;;;;;;;;;16.96;65.89;99226.34;4975547;28;5213;-77
2023/07/31 07:19:58;;;;;;;;;;;;;;;17.00;65.84;99235.53;4973709;28;5111;-76
2023/07/31 07:22:25;;;;;;;;;;;;;;;16.96;66.05;99235.31;4971699;28;4676;-75
2023/07/31 07:24:52;;;;;;;;;;;;;;;16.95;66.18;99235.63;4961269;28;4847;-76
2023/07/31 07:27:18;;;;;;;;;;;;;;;16.94;66.02;99232.09;4972193;28;4949;-76
2023/07/31 07:29:45;;;;;;;;;;;;;;;16.94;66.09;99236.72;4959354;28;4592;-76
2023/07/31 07:32:11;;;;;;;;;;;;;;;16.94;66.07;99240.25;4955141;28;5047;-76
2023/07/31 07:34:38;;;;;;;;;;;;;;;16.93;66.13;99235.91;4974536;28;4699;-78
2023/07/31 07:37:04;;;;;;;;;;;;;;;16.93;66.22;99241.34;4971536;28;5030;-75
2023/07/31 07:39:31;;;;;;;;;;;;;;;16.94;66.03;99242.16;4958119;28;5121;-77
2023/07/31 07:41:57;;;;;;;;;;;;;;;16.93;66.08;99249.50;4973076;28;5204;-77
2023/07/31 07:44:24;;;;;;;;;;;;;;;16.93;66.12;99246.78;4973420;28;5130;-75
2023/07/31 07:46:51;;;;;;;;;;;;;;;16.92;66.05;99242.44;4973432;28;4928;-76
2023/07/31 07:49:17;;;;;;;;;;;;;;;16.94;66.14;99242.16;4972667;28;4358;-76
2023/07/31 07:51:44;;;;;;;;;;;;;;;16.93;66.10;99245.97;4972645;28;4672;-77
2023/07/31 07:54:10;;;;;;;;;;;;;;;16.96;66.16;99251.63;4970318;28;5010;-76
2023/07/31 07:56:37;;;;;;;;;;;;;;;16.94;66.12;99247.59;4975747;28;4908;-75
2023/07/31 07:59:04;;;;;;;;;;;;;;;16.94;66.45;99242.97;4977009;28;4595;-76
2023/07/31 08:01:31;;;;;;;;;;;;;;;16.93;66.09;99246.78;4971660;28;4330;-77
2023/07/31 08:03:58;;;;;;;;;;;;;;;16.93;66.23;99245.97;4970303;28;5488;-77
2023/07/31 08:06:25;;;;;;;;;;;;;;;16.93;66.24;99251.41;4971910;28;5388;-75
2023/07/31 08:08:51;;;;;;;;;;;;;;;16.93;66.15;99251.41;4971644;28;5504;-78
2023/07/31 08:11:18;;;;;;;;;;;;;;;16.93;66.26;99256.84;4969840;28;5372;-75
2023/07/31 08:13:44;;;;;;;;;;;;;;;16.94;66.29;99258.47;4972323;28;5528;-73
2023/07/31 08:16:11;;;;;;;;;;;;;;;16.97;66.17;99268.75;4971911;28;4596;-74
2023/07/31 08:18:37;;;;;;;;;;;;;;;16.93;66.15;99273.97;4972239;28;5033;-75
2023/07/31 08:21:04;;;;;;;;;;;;;;;16.93;66.12;99273.97;4969628;28;5184;-75
2023/07/31 08:23:31;;;;;;;;;;;;;;;16.94;66.09;99267.44;4973997;28;4354;-75
2023/07/31 08:25:57;;;;;;;;;;;;;;;16.93;66.06;99265.00;4971211;28;5427;-75
2023/07/31 08:28:24;;;;;;;;;;;;;;;16.92;66.18;99264.22;4973244;28;5241;-76
2023/07/31 08:30:50;;;;;;;;;;;;;;;16.91;66.21;99256.31;4954859;28;4987;-76
2023/07/31 08:33:17;;;;;;;;;;;;;;;16.91;66.15;99259.88;4970805;28;5233;-77
2023/07/31 08:35:43;;;;;;;;;;;;;;;16.89;66.24;99256.63;4973089;28;4598;-78
2023/07/31 08:38:10;;;;;;;;;;;;;;;16.89;66.32;99255.84;4971431;28;5204;-77
2023/07/31 08:40:37;;;;;;;;;;;;;;;16.90;66.18;99258.25;4971265;28;5065;-75
2023/07/31 08:43:03;;;;;;;;;;;;;;;16.90;66.10;99252.81;4969002;28;5245;-76
2023/07/31 08:45:30;;;;;;;;;;;;;;;16.91;66.04;99250.88;4970938;28;5096;-77
2023/07/31 08:47:56;;;;;;;;;;;;;;;16.89;66.30;99250.41;4972020;28;5002;-77
2023/07/31 08:50:23;;;;;;;;;;;;;;;16.90;66.29;99249.28;4954625;28;5032;-76
2023/07/31 08:52:49;;;;;;;;;;;;;;;16.90;66.07;99249.28;4957646;28;5116;-77
2023/07/31 08:55:16;;;;;;;;;;;;;;;16.90;66.04;99252.81;4969600;28;4499;-77
2023/07/31 08:57:42;;;;;;;;;;;;;;;16.90;66.24;99249.28;4968343;28;5513;-75
2023/07/31 09:00:09;;;;;;;;;;;;;;;16.88;66.04;99249.56;4972106;28;5068;-77
2023/07/31 09:02:35;;;;;;;;;;;;;;;16.89;66.11;99250.41;4967223;28;5177;-76
2023/07/31 09:05:02;;;;;;;;;;;;;;;16.88;66.26;99246.03;4968723;28;4989;-77
2023/07/31 09:07:28;;;;;;;;;;;;;;;16.89;66.18;99255.84;4968763;28;5183;-76
2023/07/31 09:09:55;;;;;;;;;;;;;;;16.88;66.17;99246.84;4970244;28;5307;-76
2023/07/31 09:12:22;;;;;;;;;;;;;;;16.89;66.13;99255.84;4971756;28;4521;-77
2023/07/31 09:14:48;;;;;;;;;;;;;;;16.90;66.08;99254.72;4971530;28;5144;-78
2023/07/31 09:17:15;;;;;;;;;;;;;;;16.89;66.15;99258.56;4972187;28;5160;-78
2023/07/31 09:19:42;;;;;;;;;;;;;;;16.90;66.07;99254.72;4970539;28;4566;-77
2023/07/31 09:22:08;;;;;;;;;;;;;;;16.92;66.11;99263.41;4972031;28;5234;-77
2023/07/31 09:24:35;;;;;;;;;;;;;;;16.93;66.21;99254.13;4968185;28;5228;-77
2023/07/31 09:27:01;;;;;;;;;;;;;;;16.93;66.07;99257.66;4970999;28;5072;-77
2023/07/31 09:29:28;;;;;;;;;;;;;;;16.94;66.13;99258.47;4968762;28;4276;-77
2023/07/31 09:31:55;;;;;;;;;;;;;;;16.95;66.11;99255.47;4969659;28;5301;-76
2023/07/31 09:34:21;;;;;;;;;;;;;;;16.95;66.12;99254.66;4970041;28;4574;-77
2023/07/31 09:36:48;;;;;;;;;;;;;;;16.96;66.04;99254.34;4971005;28;4350;-77
2023/07/31 09:39:15;;;;;;;;;;;;;;;16.97;66.26;99256.00;4971311;28;5158;-77
2023/07/31 09:41:42;;;;;;;;;;;;;;;17.01;66.33;99257.00;4968384;28;5189;-77
2023/07/31 09:44:08;;;;;;;;;;;;;;;17.00;66.19;99249.97;4972208;28;4910;-77
2023/07/31 09:46:35;;;;;;;;;;;;;;;17.05;65.84;99253.69;4968761;28;5342;-78
2023/07/31 09:49:04;;;;;;;;;;;;;;;17.02;66.00;99266.78;4969539;28;5067;-77
2023/07/31 09:51:31;;;;;;;;;;;;;;;17.05;66.08;99259.13;4969999;28;4977;-77
2023/07/31 09:53:57;;;;;;;;;;;;;;;17.06;65.88;99258.03;4969188;28;5188;-77
2023/07/31 09:56:24;;;;;;;;;;;;;;;17.14;65.78;99265.53;4972196;28;5037;-77
2023/07/31 09:58:50;;;;;;;;;;;;;;;17.14;65.72;99262.81;4967927;28;4469;-77
2023/07/31 10:01:17;;;;;;;;;;;;;;;17.16;65.69;99266.84;4971661;28;4268;-77
2023/07/31 10:03:43;;;;;;;;;;;;;;;17.15;65.67;99267.16;4970057;28;5151;-77
2023/07/31 10:06:10;;;;;;;;;;;;;;;17.15;65.78;99267.16;4956108;28;4702;-76
2023/07/31 10:08:37;;;;;;;;;;;;;;;17.16;65.73;99266.06;4969726;28;4642;-77
2023/07/31 10:11:03;;;;;;;;;;;;;;;17.13;65.77;99259.28;4968732;28;5117;-76
2023/07/31 10:13:30;;;;;;;;;;;;;;;17.21;65.63;99258.63;4956154;28;5155;-75
2023/07/31 10:15:56;;;;;;;;;;;;;;;17.21;65.39;99260.56;4970739;28;4947;-75
2023/07/31 10:18:23;;;;;;;;;;;;;;;17.20;65.65;99259.72;4969300;28;4531;-74
2023/07/31 10:20:49;;;;;;;;;;;;;;;17.14;65.83;99263.63;4969815;28;4971;-74
2023/07/31 10:23:16;;;;;;;;;;;;;;;17.14;65.77;99268.25;4968716;28;4526;-74
2023/07/31 10:25:43;;;;;;;;;;;;;;;17.16;65.75;99274.22;4968938;28;4393;-73
2023/07/31 10:28:09;;;;;;;;;;;;;;;17.22;65.49;99276.56;4954249;28;5112;-72
2023/07/31 10:30:38;;;;;;;;;;;;;;;17.20;65.58;99280.69;4951822;28;4883;-75
2023/07/31 10:33:04;;;;;;;;;;;;;;;17.23;65.46;99280.88;4971281;28;4873;-74
2023/07/31 10:35:31;;;;;;;;;;;;;;;17.19;65.64;99274.44;4955093;28;5065;-74
2023/07/31 10:37:58;;;;;;;;;;;;;;;17.29;65.23;99278.91;4968857;28;5448;-75
2023/07/31 10:40:25;;;;;;;;;;;;;;;17.25;65.38;99283.31;4970742;28;4618;-75
2023/07/31 10:42:52;;;;;;;;;;;;;;;17.15;65.80;99270.69;4955237;28;5253;-75
2023/07/31 10:45:19;;;;;;;;;;;;;;;17.23;65.80;99275.44;4963708;28;5037;-76
2023/07/31 10:47:45;;;;;;;;;;;;;;;17.11;66.10;99271.56;4970346;28;5029;-76
2023/07/31 10:50:12;;;;;;;;;;;;;;;17.05;65.87;99268.09;4968875;28;5149;-77
2023/07/31 10:52:38;;;;;;;;;;;;;;;17.08;65.95;99264.78;4968835;28;5325;-76
2023/07/31 10:55:05;;;;;;;;;;;;;;;17.08;66.13;99270.22;4968607;28;5232;-77
2023/07/31 10:57:31;;;;;;;;;;;;;;;17.10;65.93;99262.59;4972258;28;4988;-76
2023/07/31 10:59:58;;;;;;;;;;;;;;;17.11;65.91;99266.94;4952719;28;5271;-76
2023/07/31 11:02:25;;;;;;;;;;;;;;;17.16;65.63;99269.59;4971584;28;4506;-77
2023/07/31 11:04:51;;;;;;;;;;;;;;;17.17;65.75;99276.63;4968300;28;4390;-76
2023/07/31 11:07:18;;;;;;;;;;;;;;;17.16;65.55;99272.31;4969030;28;4410;-76
2023/07/31 11:09:45;;;;;;;;;;;;;;;17.23;65.33;99271.91;4968952;28;5190;-76
2023/07/31 11:12:12;;;;;;;;;;;;;;;17.34;65.14;99272.59;4970417;28;5027;-77
2023/07/31 11:14:38;;;;;;;;;;;;;;;17.33;65.17;99266.34;4968682;28;5054;-78
2023/07/31 11:17:05;;;;;;;;;;;;;;;17.36;64.93;99257.59;4970971;28;5135;-74
2023/07/31 11:19:32;;;;;;;;;;;;;;;17.28;65.36;99255.53;4953435;28;4675;-75
2023/07/31 11:21:58;;;;;;;;;;;;;;;17.41;64.87;99257.53;4959421;28;4976;-76
2023/07/31 11:24:25;;;;;;;;;;;;;;;17.34;65.16;99256.25;4968979;28;4684;-75
2023/07/31 11:26:51;;;;;;;;;;;;;;;17.36;64.97;99243.19;4957027;28;4276;-75
2023/07/31 11:29:18;;;;;;;;;;;;;;;17.24;65.34;99251.78;4967048;28;5246;-76
2023/07/31 11:31:45;;;;;;;;;;;;;;;17.17;65.67;99252.16;4969454;28;4352;-77
2023/07/31 11:34:11;;;;;;;;;;;;;;;17.14;65.99;99257.38;4969995;28;4858;-77
2023/07/31 11:36:38;;;;;;;;;;;;;;;17.15;65.65;99248.13;4967148;28;5110;-77
2023/07/31 11:39:04;;;;;;;;;;;;;;;17.13;65.95;99251.13;4969968;28;5129;-76
2023/07/31 11:41:31;;;;;;;;;;;;;;;17.09;66.01;99249.28;4950104;28;5048;-77
2023/07/31 11:43:57;;;;;;;;;;;;;;;17.08;66.17;99245.75;4969843;28;4925;-77
2023/07/31 11:46:24;;;;;;;;;;;;;;;17.08;66.14;99245.75;4967795;28;5087;-76
2023/07/31 11:48:50;;;;;;;;;;;;;;;17.03;66.09;99251.28;4969487;28;5130;-77
2023/07/31 11:51:18;;;;;;;;;;;;;;;17.06;66.16;99252.59;4967707;28;5023;-77
2023/07/31 11:53:47;;;;;;;;;;;;;;;17.09;66.28;99250.13;4968423;28;5045;-77
2023/07/31 11:56:13;;;;;;;;;;;;;;;17.30;68.40;99244.38;4970089;28;4538;-76
2023/07/31 11:58:40;;;;;;;;;;;;;;;17.11;66.68;99247.09;4967042;28;5043;-78
2023/07/31 12:01:06;;;;;;;;;;;;;;;17.03;66.83;99241.22;4967738;28;4663;-77
2023/07/31 12:03:33;;;;;;;;;;;;;;;17.00;66.92;99236.38;4965910;28;4365;-78
2023/07/31 12:06:00;;;;;;;;;;;;;;;17.01;67.16;99232.53;4968250;28;4357;-78
2023/07/31 12:08:26;;;;;;;;;;;;;;;16.99;67.25;99226.56;4970831;28;4679;-77
2023/07/31 12:10:53;;;;;;;;;;;;;;;16.99;67.42;99233.91;4968728;28;4704;-76
2023/07/31 12:13:19;;;;;;;;;;;;;;;16.99;67.44;99233.91;4966225;28;4930;-75
2023/07/31 12:15:46;;;;;;;;;;;;;;;17.03;67.38;99237.69;4954408;28;5101;-77
2023/07/31 12:18:12;;;;;;;;;;;;;;;17.02;67.46;99225.97;4967867;28;4948;-78
2023/07/31 12:20:39;;;;;;;;;;;;;;;17.03;67.43;99222.16;4967728;28;4248;-78
2023/07/31 12:23:06;;;;;;;;;;;;;;;17.02;67.41;99220.53;4968545;28;4496;-76
2023/07/31 12:25:32;;;;;;;;;;;;;;;17.05;67.22;99216.44;4967124;28;4959;-75
2023/07/31 12:27:59;;;;;;;;;;;;;;;17.07;67.37;99227.81;4967727;28;5195;-77
2023/07/31 12:30:25;;;;;;;;;;;;;;;17.08;67.35;99223.19;4968520;28;4875;-77
2023/07/31 12:32:54;;;;;;;;;;;;;;;17.09;67.27;99222.06;4967409;28;4473;-75
2023/07/31 12:35:21;;;;;;;;;;;;;;;17.10;67.24;99218.28;4956277;28;5169;-76
2023/07/31 12:37:47;;;;;;;;;;;;;;;17.08;67.34;99221.28;4968601;28;5155;-78
2023/07/31 12:40:14;;;;;;;;;;;;;;;17.13;67.10;99212.25;4968434;28;4952;-75
2023/07/31 12:42:40;;;;;;;;;;;;;;;17.12;67.00;99216.88;4967343;28;5006;-76
2023/07/31 12:45:07;;;;;;;;;;;;;;;17.11;67.17;99209.81;4956044;28;5104;-79
2023/07/31 12:47:34;;;;;;;;;;;;;;;17.13;66.94;99206.81;4974210;28;5247;-76
2023/07/31 12:50:00;;;;;;;;;;;;;;;17.14;66.92;99214.66;4970757;28;4408;-77
2023/07/31 12:52:27;;;;;;;;;;;;;;;17.16;66.75;99204.28;4969431;28;4926;-77
2023/07/31 12:54:53;;;;;;;;;;;;;;;17.19;66.70;99205.63;4971919;28;5131;-77
2023/07/31 12:57:20;;;;;;;;;;;;;;;17.21;66.74;99214.31;4971395;28;4343;-77